createdAt,value
2018-08-28T00:01:05.266Z,100481.70
2018-08-28T00:02:11.412Z,100482.97
2018-08-28T00:03:17.072Z,100489.72
2018-08-28T00:04:22.701Z,100491.47
2018-08-28T00:05:28.676Z,100489.59
2018-08-28T00:06:34.778Z,100490.97
2018-08-28T00:07:41.841Z,100498.98
2018-08-28T00:08:47.608Z,100495.31
2018-08-28T00:09:53.624Z,100495.94
2018-08-28T00:10:59.765Z,100498.88
2018-08-28T00:12:05.171Z,100491.50
2018-08-28T00:13:11.170Z,100493.73
2018-08-28T00:14:17.220Z,100491.67
2018-08-28T00:15:22.894Z,100485.47
2018-08-28T00:16:28.832Z,100493.65
2018-08-28T00:17:34.876Z,100492.73
2018-08-28T00:18:40.944Z,100494.87
2018-08-28T00:19:46.972Z,100501.50
2018-08-28T00:20:52.968Z,100505.95
2018-08-28T00:21:59.062Z,100510.08
2018-08-28T00:23:04.719Z,100508.95
2018-08-28T00:24:10.960Z,100503.06
2018-08-28T00:25:16.964Z,100508.41
2018-08-28T00:26:24.045Z,100512.36
2018-08-28T00:27:35.115Z,100516.70
2018-08-28T00:28:41.240Z,100517.11
2018-08-28T00:29:46.968Z,100517.70
2018-08-28T00:30:53.036Z,100511.16
2018-08-28T00:31:58.680Z,100520.49
2018-08-28T00:33:04.412Z,100520.23
2018-08-28T00:34:10.435Z,100529.38
2018-08-28T00:35:16.211Z,100521.81
2018-08-28T00:36:22.231Z,100522.06
2018-08-28T00:37:28.260Z,100524.60
2018-08-28T00:38:34.267Z,100530.06
2018-08-28T00:39:40.383Z,100522.71
2018-08-28T00:40:46.461Z,100528.27
2018-08-28T00:41:52.567Z,100535.94
2018-08-28T00:42:58.716Z,100528.30
2018-08-28T00:44:05.292Z,100535.53
2018-08-28T00:45:11.302Z,100535.13
2018-08-28T00:46:17.409Z,100541.66
2018-08-28T00:47:23.571Z,100539.01
2018-08-28T00:48:29.298Z,100537.26
2018-08-28T00:49:35.348Z,100537.77
2018-08-28T00:50:40.991Z,100543.80
2018-08-28T00:51:46.930Z,100540.72
2018-08-28T00:52:57.940Z,100541.97
2018-08-28T00:54:04.047Z,100543.50
2018-08-28T00:55:09.861Z,100550.89
2018-08-28T00:56:16.129Z,100548.59
2018-08-28T00:57:22.273Z,100550.30
2018-08-28T00:58:28.307Z,100553.80
2018-08-28T00:59:34.288Z,100554.61
2018-08-28T01:00:45.405Z,100553.64
2018-08-28T01:01:51.406Z,100550.52
2018-08-28T01:02:57.078Z,100550.48
2018-08-28T01:04:03.214Z,100553.34
2018-08-28T01:05:08.101Z,100553.34
2018-08-28T01:06:14.196Z,100551.55
2018-08-28T01:07:20.299Z,100559.07
2018-08-28T01:08:26.452Z,100558.17
2018-08-28T01:09:32.448Z,100558.99
2018-08-28T01:10:38.563Z,100563.19
2018-08-28T01:11:44.635Z,100562.30
2018-08-28T01:12:50.648Z,100563.35
2018-08-28T01:13:56.684Z,100564.25
2018-08-28T01:15:06.201Z,100568.56
2018-08-28T01:16:12.230Z,100569.94
2018-08-28T01:17:18.341Z,100573.98
2018-08-28T01:18:24.568Z,100570.88
2018-08-28T01:19:30.557Z,100568.99
2018-08-28T01:20:36.619Z,100569.66
2018-08-28T01:21:42.564Z,100570.14
2018-08-28T01:22:48.605Z,100569.73
2018-08-28T01:23:54.577Z,100571.87
2018-08-28T01:25:00.697Z,100565.75
2018-08-28T01:26:06.459Z,100564.06
2018-08-28T01:27:12.521Z,100566.13
2018-08-28T01:28:18.499Z,100567.95
2018-08-28T01:29:24.500Z,100568.97
2018-08-28T01:30:30.276Z,100566.64
2018-08-28T01:31:37.315Z,100561.50
2018-08-28T01:32:43.364Z,100564.40
2018-08-28T01:33:49.361Z,100571.69
2018-08-28T01:34:55.323Z,100575.02
2018-08-28T01:36:01.391Z,100574.35
2018-08-28T01:37:07.387Z,100570.36
2018-08-28T01:38:14.527Z,100578.09
2018-08-28T01:39:20.508Z,100573.86
2018-08-28T01:40:26.482Z,100578.19
2018-08-28T01:41:32.529Z,100578.48
2018-08-28T01:42:38.495Z,100574.78
2018-08-28T01:43:44.531Z,100581.80
2018-08-28T01:44:50.286Z,100581.41
2018-08-28T01:45:56.320Z,100578.24
2018-08-28T01:47:02.832Z,100580.73
2018-08-28T01:48:08.945Z,100577.96
2018-08-28T01:49:15.080Z,100570.59
2018-08-28T01:50:20.950Z,100571.45
2018-08-28T01:51:27.091Z,100577.95
2018-08-28T01:52:33.062Z,100575.67
2018-08-28T01:53:38.918Z,100577.67
2018-08-28T01:54:44.850Z,100582.93
2018-08-28T01:55:50.860Z,100580.36
2018-08-28T01:56:56.776Z,100586.68
2018-08-28T01:58:03.671Z,100581.16
2018-08-28T01:59:09.379Z,100584.23
2018-08-28T02:00:15.400Z,100580.47
2018-08-28T02:01:21.462Z,100589.28
2018-08-28T02:02:27.507Z,100587.88
2018-08-28T02:03:33.643Z,100587.80
2018-08-28T02:04:39.404Z,100589.12
2018-08-28T02:05:45.463Z,100592.50
2018-08-28T02:06:51.423Z,100586.41
2018-08-28T02:07:58.111Z,100589.53
2018-08-28T02:09:03.493Z,100592.70
2018-08-28T02:10:09.584Z,100589.44
2018-08-28T02:11:15.555Z,100589.84
2018-08-28T02:12:21.562Z,100591.07
2018-08-28T02:13:27.693Z,100597.99
2018-08-28T02:14:33.732Z,100590.05
2018-08-28T02:15:39.786Z,100594.70
2018-08-28T02:16:45.401Z,100598.39
2018-08-28T02:17:51.381Z,100597.34
2018-08-28T02:18:57.286Z,100590.66
2018-08-28T02:20:03.259Z,100590.44
2018-08-28T02:21:09.245Z,100592.66
2018-08-28T02:22:15.177Z,100600.89
2018-08-28T02:23:21.301Z,100598.51
2018-08-28T02:24:27.443Z,100596.23
2018-08-28T02:25:33.516Z,100596.55
2018-08-28T02:26:39.282Z,100603.27
2018-08-28T02:27:45.639Z,100603.18
2018-08-28T02:28:51.767Z,100599.47
2018-08-28T02:29:57.930Z,100596.78
2018-08-28T02:31:03.956Z,100597.08
2018-08-28T02:32:09.945Z,100601.61
2018-08-28T02:33:15.955Z,100603.35
2018-08-28T02:34:23.024Z,100607.42
2018-08-28T02:35:28.736Z,100615.83
2018-08-28T02:36:34.701Z,100615.36
2018-08-28T02:37:40.696Z,100613.37
2018-08-28T02:38:46.809Z,100616.15
2018-08-28T02:39:52.920Z,100612.73
2018-08-28T02:40:59.030Z,100614.89
2018-08-28T02:42:05.930Z,100618.97
2018-08-28T02:43:13.043Z,100618.72
2018-08-28T02:44:19.003Z,100619.26
2018-08-28T02:45:25.115Z,100617.23
2018-08-28T02:46:31.188Z,100621.98
2018-08-28T02:47:37.320Z,100623.87
2018-08-28T02:48:43.406Z,100623.59
2018-08-28T02:49:49.452Z,100619.08
2018-08-28T02:50:55.571Z,100624.16
2018-08-28T02:52:01.538Z,100621.59
2018-08-28T02:53:07.665Z,100621.61
2018-08-28T02:54:13.431Z,100627.84
2018-08-28T02:55:19.446Z,100624.98
2018-08-28T02:56:25.099Z,100624.86
2018-08-28T02:57:31.183Z,100627.19
2018-08-28T02:58:37.763Z,100628.83
2018-08-28T02:59:43.795Z,100627.47
2018-08-28T03:00:49.869Z,100627.48
2018-08-28T03:01:55.893Z,100626.71
2018-08-28T03:03:01.715Z,100628.48
2018-08-28T03:04:07.887Z,100625.88
2018-08-28T03:05:13.980Z,100629.03
2018-08-28T03:06:19.882Z,100627.39
2018-08-28T03:07:25.931Z,100623.73
2018-08-28T03:08:32.021Z,100627.76
2018-08-28T03:09:38.149Z,100633.55
2018-08-28T03:10:44.171Z,100625.06
2018-08-28T03:11:50.165Z,100627.56
2018-08-28T03:12:56.246Z,100634.23
2018-08-28T03:14:02.482Z,100630.85
2018-08-28T03:15:08.197Z,100635.52
2018-08-28T03:16:14.258Z,100638.92
2018-08-28T03:17:20.280Z,100635.69
2018-08-28T03:18:26.375Z,100638.97
2018-08-28T03:19:32.511Z,100637.24
2018-08-28T03:20:38.144Z,100637.02
2018-08-28T03:21:43.957Z,100636.70
2018-08-28T03:22:49.970Z,100643.86
2018-08-28T03:23:56.687Z,100643.48
2018-08-28T03:25:02.739Z,100642.95
2018-08-28T03:26:08.703Z,100647.61
2018-08-28T03:27:14.634Z,100649.59
2018-08-28T03:28:20.618Z,100650.05
2018-08-28T03:29:26.720Z,100653.73
2018-08-28T03:30:32.864Z,100657.50
2018-08-28T03:31:39.768Z,100656.87
2018-08-28T03:32:45.753Z,100661.65
2018-08-28T03:33:51.756Z,100660.25
2018-08-28T03:34:57.577Z,100659.55
2018-08-28T03:36:03.585Z,100661.29
2018-08-28T03:37:09.456Z,100661.55
2018-08-28T03:38:15.496Z,100656.95
2018-08-28T03:39:21.128Z,100662.99
2018-08-28T03:40:27.116Z,100659.16
2018-08-28T03:41:33.725Z,100664.84
2018-08-28T03:42:39.803Z,100672.56
2018-08-28T03:43:45.814Z,100669.78
2018-08-28T03:44:51.868Z,100671.64
2018-08-28T03:45:58.022Z,100665.53
2018-08-28T03:47:04.743Z,100673.09
2018-08-28T03:48:10.901Z,100670.82
2018-08-28T03:49:17.064Z,100665.47
2018-08-28T03:50:23.096Z,100669.98
2018-08-28T03:51:29.214Z,100673.26
2018-08-28T03:52:36.509Z,100674.16
2018-08-28T03:53:52.314Z,100668.69
2018-08-28T03:55:07.908Z,100675.23
2018-08-28T03:56:26.156Z,100678.00
2018-08-28T03:57:47.499Z,100674.67
2018-08-28T03:59:01.201Z,100681.06
2018-08-28T04:00:20.587Z,100681.96
2018-08-28T04:01:38.973Z,100680.38
2018-08-28T04:02:57.234Z,100684.42
2018-08-28T04:04:13.871Z,100684.58
2018-08-28T04:05:33.572Z,100676.45
2018-08-28T04:06:52.072Z,100679.94
2018-08-28T04:08:10.367Z,100683.87
2018-08-28T04:09:28.223Z,100692.11
2018-08-28T04:10:43.274Z,100691.45
2018-08-28T04:11:59.958Z,100687.03
2018-08-28T04:13:16.050Z,100692.43
2018-08-28T04:14:33.182Z,100695.41
2018-08-28T04:15:50.107Z,100693.75
2018-08-28T04:17:07.609Z,100697.73
2018-08-28T04:18:25.283Z,100695.57
2018-08-28T04:19:35.747Z,100700.88
2018-08-28T04:20:46.885Z,100699.14
2018-08-28T04:21:53.000Z,100700.97
2018-08-28T04:22:59.102Z,100701.59
2018-08-28T04:24:04.861Z,100698.23
2018-08-28T04:25:10.936Z,100697.16
2018-08-28T04:26:17.223Z,100699.95
2018-08-28T04:27:23.356Z,100703.76
2018-08-28T04:28:29.327Z,100700.38
2018-08-28T04:29:35.894Z,100707.24
2018-08-28T04:30:41.860Z,100710.02
2018-08-28T04:31:47.833Z,100710.66
2018-08-28T04:32:53.832Z,100708.87
2018-08-28T04:34:00.036Z,100707.35
2018-08-28T04:35:05.709Z,100709.64
2018-08-28T04:36:11.673Z,100708.34
2018-08-28T04:37:17.803Z,100710.73
2018-08-28T04:38:23.964Z,100712.31
2018-08-28T04:39:29.974Z,100711.47
2018-08-28T04:40:36.001Z,100712.17
2018-08-28T04:41:42.714Z,100712.40
2018-08-28T04:42:48.706Z,100712.47
2018-08-28T04:43:54.810Z,100716.30
2018-08-28T04:45:00.950Z,100722.25
2018-08-28T04:46:07.203Z,100723.94
2018-08-28T04:47:12.830Z,100724.45
2018-08-28T04:48:18.595Z,100730.34
2018-08-28T04:49:24.517Z,100722.98
2018-08-28T04:50:30.670Z,100727.70
2018-08-28T04:51:36.455Z,100726.98
2018-08-28T04:52:43.220Z,100724.72
2018-08-28T04:53:49.604Z,100724.97
2018-08-28T04:54:55.691Z,100733.36
2018-08-28T04:56:01.917Z,100733.34
2018-08-28T04:57:08.000Z,100725.05
2018-08-28T04:58:14.033Z,100733.88
2018-08-28T04:59:20.155Z,100727.58
2018-08-28T05:00:26.122Z,100732.52
2018-08-28T05:01:32.253Z,100734.72
2018-08-28T05:02:38.268Z,100735.23
2018-08-28T05:03:44.533Z,100744.88
2018-08-28T05:04:51.105Z,100738.89
2018-08-28T05:05:57.183Z,100741.84
2018-08-28T05:07:03.260Z,100735.08
2018-08-28T05:08:08.923Z,100742.41
2018-08-28T05:09:14.968Z,100737.28
2018-08-28T05:10:20.980Z,100744.59
2018-08-28T05:11:27.034Z,100748.44
2018-08-28T05:12:32.976Z,100741.83
2018-08-28T05:13:38.991Z,100746.13
2018-08-28T05:14:45.010Z,100741.05
2018-08-28T05:15:51.161Z,100741.44
2018-08-28T05:16:57.439Z,100744.12
2018-08-28T05:18:03.460Z,100746.81
2018-08-28T05:19:11.517Z,100750.20
2018-08-28T05:20:18.890Z,100748.55
2018-08-28T05:21:25.138Z,100751.89
2018-08-28T05:22:31.169Z,100746.66
2018-08-28T05:23:37.176Z,100748.47
2018-08-28T05:24:43.290Z,100742.22
2018-08-28T05:25:49.349Z,100750.95
2018-08-28T05:26:55.774Z,100747.44
2018-08-28T05:28:01.653Z,100749.95
2018-08-28T05:29:07.924Z,100742.73
2018-08-28T05:30:13.891Z,100749.80
2018-08-28T05:31:19.977Z,100746.00
2018-08-28T05:32:26.041Z,100756.77
2018-08-28T05:33:32.033Z,100751.63
2018-08-28T05:34:37.900Z,100752.96
2018-08-28T05:35:43.961Z,100751.44
2018-08-28T05:36:49.694Z,100748.58
2018-08-28T05:37:55.754Z,100747.02
2018-08-28T05:39:01.976Z,100747.77
2018-08-28T05:40:07.936Z,100747.72
2018-08-28T05:41:13.963Z,100750.25
2018-08-28T05:42:19.971Z,100756.55
2018-08-28T05:43:26.048Z,100755.95
2018-08-28T05:44:32.046Z,100758.41
2018-08-28T05:45:38.188Z,100753.08
2018-08-28T05:46:44.318Z,100754.11
2018-08-28T05:47:50.376Z,100750.45
2018-08-28T05:48:56.480Z,100753.08
2018-08-28T05:50:02.597Z,100748.56
2018-08-28T05:51:08.695Z,100752.30
2018-08-28T05:52:14.831Z,100753.83
2018-08-28T05:53:20.916Z,100757.44
2018-08-28T05:54:26.955Z,100759.86
2018-08-28T05:55:32.909Z,100765.20
2018-08-28T05:56:39.059Z,100763.47
2018-08-28T05:57:45.016Z,100769.40
2018-08-28T05:58:51.068Z,100768.72
2018-08-28T05:59:57.151Z,100762.69
2018-08-28T06:01:03.011Z,100767.61
2018-08-28T06:02:09.180Z,100769.98
2018-08-28T06:03:14.962Z,100768.56
2018-08-28T06:04:21.268Z,100765.17
2018-08-28T06:05:27.264Z,100771.88
2018-08-28T06:06:33.269Z,100772.20
2018-08-28T06:07:39.384Z,100768.36
2018-08-28T06:08:45.518Z,100764.00
2018-08-28T06:09:51.684Z,100764.73
2018-08-28T06:10:57.572Z,100768.70
2018-08-28T06:12:04.100Z,100765.84
2018-08-28T06:13:10.108Z,100763.30
2018-08-28T06:14:16.122Z,100769.23
2018-08-28T06:15:22.291Z,100766.37
2018-08-28T06:16:28.346Z,100768.78
2018-08-28T06:17:34.492Z,100762.87
2018-08-28T06:18:40.279Z,100769.63
2018-08-28T06:19:46.604Z,100770.03
2018-08-28T06:20:52.827Z,100771.58
2018-08-28T06:21:59.254Z,100774.49
2018-08-28T06:23:04.806Z,100773.51
2018-08-28T06:24:10.889Z,100771.63
2018-08-28T06:25:17.170Z,100769.05
2018-08-28T06:26:23.239Z,100773.38
2018-08-28T06:27:29.344Z,100772.70
2018-08-28T06:28:35.325Z,100774.17
2018-08-28T06:29:41.427Z,100774.62
2018-08-28T06:30:47.419Z,100777.41
2018-08-28T06:31:53.417Z,100771.70
2018-08-28T06:32:59.465Z,100770.38
2018-08-28T06:34:05.259Z,100770.03
2018-08-28T06:35:11.353Z,100766.35
2018-08-28T06:36:17.400Z,100771.66
2018-08-28T06:37:23.392Z,100770.03
2018-08-28T06:38:29.569Z,100773.63
2018-08-28T06:39:35.583Z,100772.30
2018-08-28T06:40:42.188Z,100775.27
2018-08-28T06:41:48.222Z,100775.39
2018-08-28T06:42:54.266Z,100770.19
2018-08-28T06:44:01.235Z,100769.95
2018-08-28T06:45:07.069Z,100776.81
2018-08-28T06:46:13.072Z,100774.45
2018-08-28T06:47:19.083Z,100779.89
2018-08-28T06:48:25.150Z,100784.47
2018-08-28T06:49:31.160Z,100788.88
2018-08-28T06:50:37.514Z,100778.97
2018-08-28T06:51:43.239Z,100781.78
2018-08-28T06:52:49.185Z,100780.87
2018-08-28T06:53:55.510Z,100787.42
2018-08-28T06:55:01.467Z,100784.42
2018-08-28T06:56:07.543Z,100785.55
2018-08-28T06:57:13.977Z,100791.84
2018-08-28T06:58:19.944Z,100790.59
2018-08-28T06:59:26.621Z,100788.66
2018-08-28T07:00:32.626Z,100791.92
2018-08-28T07:01:38.705Z,100790.63
2018-08-28T07:02:44.782Z,100795.07
2018-08-28T07:03:51.129Z,100789.39
2018-08-28T07:04:57.260Z,100794.16
2018-08-28T07:06:03.380Z,100793.14
2018-08-28T07:07:09.389Z,100792.77
2018-08-28T07:08:15.438Z,100795.50
2018-08-28T07:09:21.500Z,100791.30
2018-08-28T07:10:27.608Z,100794.36
2018-08-28T07:11:33.715Z,100794.83
2018-08-28T07:12:41.255Z,100794.64
2018-08-28T07:13:46.950Z,100789.69
2018-08-28T07:14:52.949Z,100793.43
2018-08-28T07:15:58.995Z,100801.30
2018-08-28T07:17:05.070Z,100802.58
2018-08-28T07:18:11.212Z,100803.18
2018-08-28T07:19:18.004Z,100802.39
2018-08-28T07:20:24.304Z,100805.80
2018-08-28T07:21:30.318Z,100804.47
2018-08-28T07:22:36.461Z,100808.72
2018-08-28T07:23:43.174Z,100803.63
2018-08-28T07:24:49.140Z,100804.46
2018-08-28T07:25:55.297Z,100805.02
2018-08-28T07:27:01.460Z,100806.39
2018-08-28T07:28:07.609Z,100804.70
2018-08-28T07:29:13.688Z,100807.98
2018-08-28T07:30:19.831Z,100803.73
2018-08-28T07:31:26.003Z,100807.10
2018-08-28T07:32:32.101Z,100803.56
2018-08-28T07:33:38.139Z,100811.70
2018-08-28T07:34:44.129Z,100811.97
2018-08-28T07:35:50.440Z,100807.41
2018-08-28T07:36:56.434Z,100811.00
2018-08-28T07:38:02.572Z,100818.65
2018-08-28T07:39:08.520Z,100809.93
2018-08-28T07:40:14.432Z,100814.93
2018-08-28T07:41:20.576Z,100816.59
2018-08-28T07:42:26.592Z,100813.80
2018-08-28T07:43:32.896Z,100808.98
2018-08-28T07:44:38.869Z,100811.75
2018-08-28T07:45:44.864Z,100814.48
2018-08-28T07:46:51.020Z,100809.92
2018-08-28T07:47:56.809Z,100803.69
2018-08-28T07:49:02.904Z,100813.83
2018-08-28T07:50:08.539Z,100811.23
2018-08-28T07:51:14.259Z,100816.03
2018-08-28T07:52:20.232Z,100811.70
2018-08-28T07:53:27.109Z,100811.48
2018-08-28T07:54:33.128Z,100816.62
2018-08-28T07:55:39.243Z,100817.97
2018-08-28T07:56:45.361Z,100815.91
2018-08-28T07:57:51.349Z,100820.34
2018-08-28T07:58:57.375Z,100811.52
2018-08-28T08:00:03.767Z,100815.39
2018-08-28T08:01:10.106Z,100813.86
2018-08-28T08:02:16.400Z,100812.55
2018-08-28T08:03:22.320Z,100821.18
2018-08-28T08:04:28.710Z,100812.89
2018-08-28T08:05:34.666Z,100816.91
2018-08-28T08:06:40.723Z,100818.38
2018-08-28T08:07:46.828Z,100822.56
2018-08-28T08:08:52.503Z,100824.11
2018-08-28T08:09:58.511Z,100823.08
2018-08-28T08:11:04.655Z,100826.25
2018-08-28T08:12:10.741Z,100820.00
2018-08-28T08:13:16.764Z,100824.27
2018-08-28T08:14:22.508Z,100822.22
2018-08-28T08:15:28.614Z,100827.31
2018-08-28T08:16:35.371Z,100818.89
2018-08-28T08:17:41.492Z,100819.80
2018-08-28T08:18:47.535Z,100821.12
2018-08-28T08:19:53.561Z,100822.85
2018-08-28T08:20:59.492Z,100826.39
2018-08-28T08:22:05.512Z,100831.99
2018-08-28T08:23:11.536Z,100828.23
2018-08-28T08:24:17.655Z,100831.36
2018-08-28T08:25:23.725Z,100825.30
2018-08-28T08:26:29.736Z,100833.68
2018-08-28T08:27:35.847Z,100832.09
2018-08-28T08:28:41.876Z,100837.64
2018-08-28T08:29:48.607Z,100836.86
2018-08-28T08:30:54.672Z,100840.95
2018-08-28T08:32:00.795Z,100833.72
2018-08-28T08:33:06.603Z,100838.33
2018-08-28T08:34:12.720Z,100831.99
2018-08-28T08:35:18.758Z,100833.91
2018-08-28T08:36:24.985Z,100836.52
2018-08-28T08:37:30.755Z,100837.30
2018-08-28T08:38:36.846Z,100836.95
2018-08-28T08:39:42.801Z,100835.75
2018-08-28T08:40:48.599Z,100835.60
2018-08-28T08:41:54.278Z,100841.98
2018-08-28T08:43:00.452Z,100835.59
2018-08-28T08:44:07.257Z,100841.12
2018-08-28T08:45:13.971Z,100843.74
2018-08-28T08:46:19.647Z,100839.08
2018-08-28T08:47:25.699Z,100834.03
2018-08-28T08:48:32.279Z,100841.13
2018-08-28T08:49:38.777Z,100839.12
2018-08-28T08:50:45.064Z,100841.78
2018-08-28T08:51:51.018Z,100838.90
2018-08-28T08:52:57.751Z,100840.15
2018-08-28T08:54:03.871Z,100839.84
2018-08-28T08:55:09.629Z,100837.13
2018-08-28T08:56:15.653Z,100842.81
2018-08-28T08:57:21.737Z,100839.70
2018-08-28T08:58:28.013Z,100842.98
2018-08-28T08:59:34.000Z,100842.14
2018-08-28T09:00:39.980Z,100837.61
2018-08-28T09:01:46.085Z,100845.20
2018-08-28T09:02:52.212Z,100843.73
2018-08-28T09:03:58.447Z,100841.76
2018-08-28T09:05:04.051Z,100839.98
2018-08-28T09:06:10.153Z,100843.09
2018-08-28T09:07:16.427Z,100839.05
2018-08-28T09:08:22.694Z,100839.12
2018-08-28T09:09:28.673Z,100843.73
2018-08-28T09:10:35.290Z,100827.98
2018-08-28T09:11:41.269Z,100832.20
2018-08-28T09:12:47.429Z,100832.75
2018-08-28T09:13:53.458Z,100836.03
2018-08-28T09:14:59.480Z,100836.82
2018-08-28T09:16:05.275Z,100834.73
2018-08-28T09:17:11.319Z,100831.00
2018-08-28T09:18:17.393Z,100836.13
2018-08-28T09:19:23.628Z,100835.55
2018-08-28T09:20:29.841Z,100832.14
2018-08-28T09:21:35.932Z,100834.77
2018-08-28T09:22:41.948Z,100832.63
2018-08-28T09:23:48.072Z,100829.57
2018-08-28T09:24:54.072Z,100833.08
2018-08-28T09:26:00.346Z,100832.14
2018-08-28T09:27:06.488Z,100828.09
2018-08-28T09:28:12.558Z,100827.56
2018-08-28T09:29:18.608Z,100836.75
2018-08-28T09:30:25.090Z,100827.96
2018-08-28T09:31:31.108Z,100827.91
2018-08-28T09:32:37.846Z,100828.11
2018-08-28T09:33:43.831Z,100830.52
2018-08-28T09:34:49.947Z,100831.00
2018-08-28T09:35:56.016Z,100832.14
2018-08-28T09:37:02.065Z,100835.85
2018-08-28T09:38:08.034Z,100833.93
2018-08-28T09:39:13.827Z,100831.54
2018-08-28T09:40:19.519Z,100828.88
2018-08-28T09:41:30.741Z,100826.16
2018-08-28T09:42:36.778Z,100832.09
2018-08-28T09:43:42.956Z,100825.60
2018-08-28T09:44:49.124Z,100825.07
2018-08-28T09:45:55.218Z,100830.34
2018-08-28T09:47:02.038Z,100833.36
2018-08-28T09:48:07.806Z,100833.55
2018-08-28T09:49:14.034Z,100831.58
2018-08-28T09:50:20.136Z,100837.48
2018-08-28T09:51:26.356Z,100835.59
2018-08-28T09:52:32.354Z,100833.08
2018-08-28T09:53:38.494Z,100838.08
2018-08-28T09:54:44.760Z,100838.45
2018-08-28T09:55:50.777Z,100837.31
2018-08-28T09:56:56.792Z,100834.47
2018-08-28T09:58:02.785Z,100831.25
2018-08-28T09:59:09.041Z,100831.73
2018-08-28T10:00:14.795Z,100831.41
2018-08-28T10:01:21.077Z,100830.26
2018-08-28T10:02:26.436Z,100833.47
2018-08-28T10:03:32.500Z,100832.40
2018-08-28T10:04:38.625Z,100831.67
2018-08-28T10:05:45.625Z,100835.78
2018-08-28T10:06:51.754Z,100833.97
2018-08-28T10:07:57.909Z,100833.37
2018-08-28T10:09:03.484Z,100838.58
2018-08-28T10:10:08.803Z,100835.78
2018-08-28T10:11:14.744Z,100829.86
2018-08-28T10:12:20.773Z,100830.99
2018-08-28T10:13:26.763Z,100836.20
2018-08-28T10:14:32.899Z,100825.83
2018-08-28T10:15:39.215Z,100833.13
2018-08-28T10:16:45.284Z,100831.19
2018-08-28T10:17:51.296Z,100836.20
2018-08-28T10:18:57.403Z,100830.66
2018-08-28T10:20:03.097Z,100832.18
2018-08-28T10:21:09.093Z,100835.72
2018-08-28T10:22:15.085Z,100838.76
2018-08-28T10:23:21.038Z,100832.94
2018-08-28T10:24:27.036Z,100831.14
2018-08-28T10:25:33.146Z,100840.00
2018-08-28T10:26:39.233Z,100835.98
2018-08-28T10:27:45.240Z,100833.66
2018-08-28T10:28:51.268Z,100828.83
2018-08-28T10:29:57.637Z,100830.59
2018-08-28T10:31:03.773Z,100832.45
2018-08-28T10:32:09.758Z,100835.72
2018-08-28T10:33:15.869Z,100838.02
2018-08-28T10:34:21.891Z,100837.08
2018-08-28T10:35:28.491Z,100829.00
2018-08-28T10:36:34.604Z,100839.41
2018-08-28T10:37:40.714Z,100842.34
2018-08-28T10:38:46.717Z,100832.90
2018-08-28T10:39:52.864Z,100829.30
2018-08-28T10:40:58.940Z,100836.60
2018-08-28T10:42:04.961Z,100835.17
2018-08-28T10:43:11.052Z,100830.37
2018-08-28T10:44:17.072Z,100832.59
2018-08-28T10:45:23.192Z,100831.86
2018-08-28T10:46:29.277Z,100834.25
2018-08-28T10:47:35.608Z,100830.88
2018-08-28T10:48:41.449Z,100830.08
2018-08-28T10:49:47.500Z,100834.81
2018-08-28T10:50:53.527Z,100832.55
2018-08-28T10:52:00.109Z,100835.20
2018-08-28T10:53:06.118Z,100839.20
2018-08-28T10:54:12.279Z,100839.52
2018-08-28T10:55:18.256Z,100841.38
2018-08-28T10:56:24.331Z,100843.02
2018-08-28T10:57:30.437Z,100843.30
2018-08-28T10:58:36.503Z,100846.75
2018-08-28T10:59:42.689Z,100844.07
2018-08-28T11:00:48.795Z,100843.20
2018-08-28T11:01:55.261Z,100845.70
2018-08-28T11:03:01.383Z,100847.91
2018-08-28T11:04:07.171Z,100850.26
2018-08-28T11:05:13.193Z,100843.55
2018-08-28T11:06:19.335Z,100843.52
2018-08-28T11:07:25.316Z,100850.43
2018-08-28T11:08:31.483Z,100850.41
2018-08-28T11:09:37.754Z,100847.69
2018-08-28T11:10:43.847Z,100845.16
2018-08-28T11:11:49.832Z,100849.02
2018-08-28T11:12:55.943Z,100848.47
2018-08-28T11:14:02.052Z,100838.80
2018-08-28T11:15:08.083Z,100843.36
2018-08-28T11:16:14.293Z,100846.85
2018-08-28T11:17:20.521Z,100844.83
2018-08-28T11:18:26.476Z,100846.02
2018-08-28T11:19:32.570Z,100845.23
2018-08-28T11:20:38.740Z,100843.09
2018-08-28T11:21:44.685Z,100845.67
2018-08-28T11:22:50.762Z,100841.75
2018-08-28T11:23:56.872Z,100847.58
2018-08-28T11:25:02.800Z,100844.95
2018-08-28T11:26:08.857Z,100844.28
2018-08-28T11:27:14.824Z,100845.91
2018-08-28T11:28:21.023Z,100837.81
2018-08-28T11:29:27.091Z,100841.19
2018-08-28T11:30:33.057Z,100840.85
2018-08-28T11:31:39.112Z,100842.25
2018-08-28T11:32:44.899Z,100844.36
2018-08-28T11:33:50.985Z,100839.93
2018-08-28T11:34:56.959Z,100839.73
2018-08-28T11:36:03.126Z,100842.09
2018-08-28T11:37:09.076Z,100839.56
2018-08-28T11:38:15.272Z,100841.05
2018-08-28T11:39:21.383Z,100842.16
2018-08-28T11:40:27.399Z,100844.93
2018-08-28T11:41:33.570Z,100846.59
2018-08-28T11:42:44.128Z,100842.44
2018-08-28T11:43:57.222Z,100842.68
2018-08-28T11:45:15.514Z,100843.61
2018-08-28T11:46:24.959Z,100842.78
2018-08-28T11:47:30.975Z,100844.66
2018-08-28T11:48:37.072Z,100848.08
2018-08-28T11:49:43.081Z,100845.55
2018-08-28T11:50:49.127Z,100846.55
2018-08-28T11:51:55.079Z,100848.86
2018-08-28T11:53:01.107Z,100838.63
2018-08-28T11:54:07.232Z,100845.20
2018-08-28T11:55:13.207Z,100840.69
2018-08-28T11:56:20.079Z,100843.95
2018-08-28T11:57:26.196Z,100839.84
2018-08-28T11:58:32.222Z,100838.80
2018-08-28T11:59:38.281Z,100839.75
2018-08-28T12:00:45.024Z,100838.86
2018-08-28T12:01:51.246Z,100836.80
2018-08-28T12:02:57.615Z,100836.50
2018-08-28T12:04:04.286Z,100839.67
2018-08-28T12:05:10.331Z,100834.63
2018-08-28T12:06:16.593Z,100835.92
2018-08-28T12:07:22.671Z,100839.47
2018-08-28T12:08:28.516Z,100827.94
2018-08-28T12:09:34.535Z,100826.53
2018-08-28T12:10:40.551Z,100830.23
2018-08-28T12:11:46.686Z,100822.23
2018-08-28T12:12:52.707Z,100821.32
2018-08-28T12:13:58.678Z,100826.34
2018-08-28T12:15:04.041Z,100823.99
2018-08-28T12:16:10.226Z,100823.78
2018-08-28T12:17:16.285Z,100822.59
2018-08-28T12:18:22.315Z,100828.88
2018-08-28T12:19:28.300Z,100823.70
2018-08-28T12:20:34.456Z,100820.81
2018-08-28T12:21:40.736Z,100816.76
2018-08-28T12:22:46.780Z,100821.09
2018-08-28T12:23:59.090Z,100823.89
2018-08-28T12:25:04.799Z,100809.54
2018-08-28T12:26:10.892Z,100816.58
2018-08-28T12:27:16.877Z,100818.30
2018-08-28T12:28:23.008Z,100817.42
2018-08-28T12:29:29.363Z,100811.19
2018-08-28T12:30:35.605Z,100819.04
2018-08-28T12:31:41.629Z,100813.78
2018-08-28T12:32:47.753Z,100810.84
2018-08-28T12:33:53.719Z,100806.05
2018-08-28T12:34:59.729Z,100813.39
2018-08-28T12:36:05.830Z,100817.21
2018-08-28T12:37:11.891Z,100810.37
2018-08-28T12:38:18.172Z,100807.04
2018-08-28T12:39:23.907Z,100809.17